VHHH/HKG METAR and TAF weather

Enter ICAO airport designator
Station Type Date Time Source
VHHH METAR 2022/12/05 14:30 UTC NOAA

VHHH 051430Z 02012KT 9999 FEW035 15/08 Q1021 NOSIG


Station Type Date Time Source
VHHH Decoded METAR 2022/12/05 14:30 UTC NOAA

Hong Kong Inter-National Airport, Hong Kong (VHHH) 22-20N 114-11E 24M
Dec 05, 2022 - 09:30 AM EST / 2022.12.05 1430 UTC
Wind: from the NNE (020 degrees) at 14 MPH (12 KT):0
Visibility: greater than 7 mile(s):0
Sky conditions: mostly clear
Temperature: 59 F (15 C)
Dew Point: 46 F (8 C)
Relative Humidity: 62%
Pressure (altimeter): 30.15 in. Hg (1021 hPa)
ob: VHHH 051430Z 02012KT 9999 FEW035 15/08 Q1021 NOSIG
cycle: 14

Station Type Date Time Source
VHHH TAF 2022/12/05 15:03 UTC NOAA

TAF TAF VHHH 051400Z 0515/0621 01015KT 9999 FEW020 SCT035 TX18/0606Z TN14/0523Z TN15/0621Z

Example: see airport list